createdAt,value
2018-07-31T00:00:28.097Z,1016.09
2018-07-31T00:01:28.125Z,1016.08
2018-07-31T00:02:28.154Z,1016.13
2018-07-31T00:03:28.200Z,1016.08
2018-07-31T00:04:28.207Z,1016.12
2018-07-31T00:05:28.236Z,1016.11
2018-07-31T00:06:28.266Z,1016.12
2018-07-31T00:07:28.296Z,1016.09
2018-07-31T00:08:28.322Z,1016.10
2018-07-31T00:09:28.359Z,1016.08
2018-07-31T00:10:28.383Z,1016.07
2018-07-31T00:11:28.408Z,1016.05
2018-07-31T00:12:28.438Z,1016.04
2018-07-31T00:13:28.466Z,1016.05
2018-07-31T00:14:28.500Z,1016.02
2018-07-31T00:15:28.526Z,1016.01
2018-07-31T00:16:28.558Z,1016.01
2018-07-31T00:17:28.586Z,1016.01
2018-07-31T00:18:28.612Z,1015.99
2018-07-31T00:19:28.638Z,1016.01
2018-07-31T00:20:28.666Z,1016.01
2018-07-31T00:21:28.696Z,1016.04
2018-07-31T00:22:28.726Z,1015.98
2018-07-31T00:23:28.755Z,1016.00
2018-07-31T00:24:28.790Z,1016.00
2018-07-31T00:25:28.808Z,1016.02
2018-07-31T00:26:28.847Z,1016.05
2018-07-31T00:27:28.868Z,1016.02
2018-07-31T00:28:28.898Z,1016.05
2018-07-31T00:29:28.926Z,1016.00
2018-07-31T00:30:28.957Z,1016.05
2018-07-31T00:31:28.985Z,1016.04
2018-07-31T00:32:29.010Z,1016.01
2018-07-31T00:33:29.038Z,1016.07
2018-07-31T00:34:29.072Z,1016.04
2018-07-31T00:35:29.095Z,1016.03
2018-07-31T00:36:29.134Z,1016.04
2018-07-31T00:37:29.153Z,1016.01
2018-07-31T00:38:29.192Z,1016.03
2018-07-31T00:39:29.207Z,1016.04
2018-07-31T00:40:29.241Z,1016.04
2018-07-31T00:41:29.271Z,1016.04
2018-07-31T00:42:29.298Z,1016.03
2018-07-31T00:43:29.384Z,1016.00
2018-07-31T00:44:29.358Z,1016.01
2018-07-31T00:45:29.381Z,1016.00
2018-07-31T00:46:29.423Z,1016.03
2018-07-31T00:47:29.436Z,1015.99
2018-07-31T00:48:29.464Z,1015.97
2018-07-31T00:49:29.500Z,1015.93
2018-07-31T00:50:29.524Z,1015.92
2018-07-31T00:51:29.548Z,1015.89
2018-07-31T00:52:29.577Z,1015.90
2018-07-31T00:53:29.605Z,1015.91
2018-07-31T00:54:29.640Z,1015.84
2018-07-31T00:55:29.666Z,1015.86
2018-07-31T00:56:29.692Z,1015.85
2018-07-31T00:57:29.720Z,1015.85
2018-07-31T00:58:29.752Z,1015.84
2018-07-31T00:59:29.781Z,1015.84
2018-07-31T01:00:29.807Z,1015.80
2018-07-31T01:01:29.840Z,1015.81
2018-07-31T01:02:29.864Z,1015.79
2018-07-31T01:03:29.888Z,1015.81
2018-07-31T01:04:29.917Z,1015.80
2018-07-31T01:05:29.942Z,1015.78
2018-07-31T01:06:29.976Z,1015.80
2018-07-31T01:07:30.002Z,1015.84
2018-07-31T01:08:30.032Z,1015.82
2018-07-31T01:09:30.057Z,1015.76
2018-07-31T01:10:30.088Z,1015.74
2018-07-31T01:11:30.119Z,1015.78
2018-07-31T01:12:30.144Z,1015.78
2018-07-31T01:13:30.176Z,1015.80
2018-07-31T01:14:30.198Z,1015.73
2018-07-31T01:15:30.236Z,1015.75
2018-07-31T01:16:30.257Z,1015.75
2018-07-31T01:17:30.284Z,1015.72
2018-07-31T01:18:30.318Z,1015.74
2018-07-31T01:19:30.348Z,1015.77
2018-07-31T01:20:30.374Z,1015.72
2018-07-31T01:21:30.396Z,1015.70
2018-07-31T01:22:30.428Z,1015.72
2018-07-31T01:23:30.462Z,1015.70
2018-07-31T01:24:30.486Z,1015.70
2018-07-31T01:25:30.510Z,1015.69
2018-07-31T01:26:30.544Z,1015.70
2018-07-31T01:27:30.566Z,1015.69
2018-07-31T01:28:30.601Z,1015.66
2018-07-31T01:29:30.625Z,1015.64
2018-07-31T01:30:30.655Z,1015.65
2018-07-31T01:31:30.684Z,1015.65
2018-07-31T01:32:30.712Z,1015.63
2018-07-31T01:33:30.738Z,1015.61
2018-07-31T01:34:30.764Z,1015.62
2018-07-31T01:35:30.796Z,1015.61
2018-07-31T01:36:30.823Z,1015.61
2018-07-31T01:37:30.848Z,1015.56
2018-07-31T01:38:31.294Z,1015.59
2018-07-31T01:39:30.924Z,1015.58
2018-07-31T01:51:31.277Z,1015.43
2018-07-31T01:52:31.268Z,1015.46
2018-07-31T01:53:31.304Z,1015.44
2018-07-31T01:55:31.576Z,1015.41
2018-07-31T01:56:31.405Z,1015.42
2018-07-31T01:57:31.715Z,1015.41
2018-07-31T01:59:31.537Z,1015.40
2018-07-31T02:02:32.985Z,1015.37
2018-07-31T02:05:31.657Z,1015.36
2018-07-31T02:33:32.422Z,1015.18
2018-07-31T02:34:32.446Z,1015.18
2018-07-31T02:35:32.469Z,1015.17
2018-07-31T02:36:32.500Z,1015.17
2018-07-31T02:37:32.530Z,1015.16
2018-07-31T02:38:32.563Z,1015.15
2018-07-31T02:39:32.590Z,1015.16
2018-07-31T02:40:32.608Z,1015.16
2018-07-31T02:41:32.640Z,1015.14
2018-07-31T02:42:32.669Z,1015.15
2018-07-31T02:43:32.696Z,1015.15
2018-07-31T02:44:32.725Z,1015.13
2018-07-31T02:45:32.755Z,1015.11
2018-07-31T02:46:32.784Z,1015.10
2018-07-31T02:47:32.813Z,1015.11
2018-07-31T02:48:32.846Z,1015.11
2018-07-31T02:49:32.869Z,1015.06
2018-07-31T02:50:32.901Z,1015.07
2018-07-31T02:51:32.922Z,1015.07
2018-07-31T02:52:32.956Z,1015.07
2018-07-31T02:53:32.983Z,1015.04
2018-07-31T02:54:33.008Z,1015.03
2018-07-31T02:55:33.033Z,1015.05
2018-07-31T02:56:33.064Z,1015.02
2018-07-31T02:57:33.089Z,1015.02
2018-07-31T02:58:33.119Z,1015.06
2018-07-31T02:59:33.152Z,1015.04
2018-07-31T03:00:33.172Z,1015.04
2018-07-31T03:01:33.198Z,1015.03
2018-07-31T03:02:33.239Z,1015.06
2018-07-31T03:03:33.256Z,1015.02
2018-07-31T03:04:33.282Z,1015.04
2018-07-31T03:05:33.310Z,1015.07
2018-07-31T03:06:33.343Z,1015.05
2018-07-31T03:07:33.373Z,1015.07
2018-07-31T03:08:33.401Z,1015.04
2018-07-31T03:09:33.422Z,1015.06
2018-07-31T03:10:33.456Z,1015.04
2018-07-31T03:11:33.479Z,1015.02
2018-07-31T03:12:33.508Z,1015.04
2018-07-31T03:13:33.536Z,1015.03
2018-07-31T03:14:33.574Z,1015.04
2018-07-31T03:15:33.591Z,1015.04
2018-07-31T03:16:33.613Z,1015.03
2018-07-31T03:17:33.659Z,1015.00
2018-07-31T03:18:33.668Z,1015.01
2018-07-31T03:19:33.699Z,1014.97
2018-07-31T03:20:33.727Z,1014.97
2018-07-31T03:21:33.758Z,1014.96
2018-07-31T03:22:33.785Z,1014.94
2018-07-31T03:23:33.809Z,1014.93
2018-07-31T03:24:33.837Z,1014.92
2018-07-31T03:25:33.866Z,1014.88
2018-07-31T03:26:33.896Z,1014.94
2018-07-31T03:27:33.920Z,1014.92
2018-07-31T03:28:33.952Z,1014.90
2018-07-31T03:29:33.980Z,1014.93
2018-07-31T03:30:34.015Z,1014.92
2018-07-31T03:31:34.027Z,1014.93
2018-07-31T03:32:34.060Z,1014.92
2018-07-31T03:33:34.089Z,1014.94
2018-07-31T03:34:34.112Z,1014.96
2018-07-31T03:35:34.141Z,1014.90
2018-07-31T03:36:34.167Z,1014.93
2018-07-31T03:37:34.196Z,1014.95
2018-07-31T03:38:34.225Z,1014.95
2018-07-31T03:39:34.254Z,1014.95
2018-07-31T03:40:34.283Z,1014.96
2018-07-31T03:41:34.314Z,1014.94
2018-07-31T03:42:34.341Z,1014.94
2018-07-31T03:43:34.361Z,1014.94
2018-07-31T03:44:34.393Z,1014.96
2018-07-31T03:45:34.423Z,1014.96
2018-07-31T03:46:34.450Z,1014.96
2018-07-31T03:47:34.477Z,1014.95
2018-07-31T03:48:34.531Z,1014.91
2018-07-31T03:49:34.529Z,1014.94
2018-07-31T03:50:34.563Z,1014.92
2018-07-31T03:51:34.583Z,1014.94
2018-07-31T03:52:34.613Z,1014.94
2018-07-31T03:53:34.639Z,1014.96
2018-07-31T03:54:34.663Z,1014.92
2018-07-31T03:55:34.760Z,1014.94
2018-07-31T03:56:34.742Z,1014.92
2018-07-31T03:57:34.751Z,1014.93
2018-07-31T03:58:34.775Z,1014.91
2018-07-31T03:59:34.803Z,1014.90
2018-07-31T04:00:34.829Z,1014.92
2018-07-31T04:01:34.863Z,1014.93
2018-07-31T04:02:34.889Z,1014.91
2018-07-31T04:03:34.919Z,1014.95
2018-07-31T04:04:34.978Z,1014.92
2018-07-31T04:05:35.149Z,1014.89
2018-07-31T04:06:34.997Z,1014.89
2018-07-31T04:07:35.029Z,1014.89
2018-07-31T04:08:35.056Z,1014.87
2018-07-31T04:09:35.082Z,1014.88
2018-07-31T04:10:35.113Z,1014.86
2018-07-31T04:11:35.135Z,1014.87
2018-07-31T04:12:35.167Z,1014.88
2018-07-31T04:13:35.187Z,1014.85
2018-07-31T04:14:35.225Z,1014.86
2018-07-31T04:15:35.247Z,1014.86
2018-07-31T04:16:35.273Z,1014.85
2018-07-31T04:17:35.303Z,1014.86
2018-07-31T04:18:35.331Z,1014.84
2018-07-31T04:19:35.361Z,1014.85
2018-07-31T04:20:35.383Z,1014.83
2018-07-31T04:21:35.417Z,1014.83
2018-07-31T04:22:35.435Z,1014.82
2018-07-31T04:23:35.467Z,1014.84
2018-07-31T04:24:35.491Z,1014.86
2018-07-31T04:25:35.523Z,1014.79
2018-07-31T04:26:35.552Z,1014.81
2018-07-31T04:27:35.581Z,1014.83
2018-07-31T04:28:35.607Z,1014.83
2018-07-31T04:29:35.631Z,1014.81
2018-07-31T04:30:35.663Z,1014.81
2018-07-31T04:31:35.687Z,1014.78
2018-07-31T04:32:35.720Z,1014.79
2018-07-31T04:33:35.744Z,1014.83
2018-07-31T04:34:35.771Z,1014.82
2018-07-31T04:35:35.797Z,1014.83
2018-07-31T04:36:35.825Z,1014.83
2018-07-31T04:37:35.849Z,1014.81
2018-07-31T04:38:35.893Z,1014.83
2018-07-31T04:39:35.910Z,1014.83
2018-07-31T04:40:35.936Z,1014.82
2018-07-31T04:41:35.965Z,1014.85
2018-07-31T04:42:35.995Z,1014.84
2018-07-31T04:43:36.022Z,1014.87
2018-07-31T04:44:36.047Z,1014.89
2018-07-31T04:45:36.077Z,1014.87
2018-07-31T04:46:36.104Z,1014.90
2018-07-31T04:47:36.136Z,1014.87
2018-07-31T04:48:36.162Z,1014.89
2018-07-31T04:49:36.193Z,1014.92
2018-07-31T04:50:36.229Z,1014.90
2018-07-31T04:51:36.243Z,1014.88
2018-07-31T04:52:36.268Z,1014.88
2018-07-31T04:53:36.298Z,1014.90
2018-07-31T04:54:36.329Z,1014.90
2018-07-31T04:55:36.357Z,1014.91
2018-07-31T04:56:36.397Z,1014.92
2018-07-31T04:57:36.409Z,1014.94
2018-07-31T04:58:36.436Z,1014.91
2018-07-31T04:59:36.461Z,1014.92
2018-07-31T05:00:36.490Z,1014.96
2018-07-31T05:01:36.530Z,1014.96
2018-07-31T05:02:36.545Z,1014.96
2018-07-31T05:03:36.575Z,1014.95
2018-07-31T05:04:36.607Z,1014.94
2018-07-31T05:05:36.638Z,1014.94
2018-07-31T05:06:36.658Z,1014.92
2018-07-31T05:07:36.687Z,1014.93
2018-07-31T05:08:36.717Z,1014.88
2018-07-31T05:09:36.741Z,1014.92
2018-07-31T05:10:36.771Z,1014.87
2018-07-31T05:11:36.804Z,1014.91
2018-07-31T05:12:36.827Z,1014.90
2018-07-31T05:13:36.857Z,1014.88
2018-07-31T05:14:36.876Z,1014.90
2018-07-31T05:15:36.911Z,1014.92
2018-07-31T05:16:36.940Z,1014.90
2018-07-31T05:17:36.972Z,1014.84
2018-07-31T05:18:36.995Z,1014.88
2018-07-31T05:19:37.019Z,1014.91
2018-07-31T05:20:37.045Z,1014.89
2018-07-31T05:21:37.077Z,1014.87
2018-07-31T05:22:37.107Z,1014.91
2018-07-31T05:23:37.135Z,1014.93
2018-07-31T05:24:37.160Z,1014.97
2018-07-31T05:25:37.193Z,1014.94
2018-07-31T05:26:37.224Z,1014.94
2018-07-31T05:27:37.245Z,1014.96
2018-07-31T05:28:37.271Z,1014.95
2018-07-31T05:29:37.299Z,1014.94
2018-07-31T05:30:37.329Z,1015.00
2018-07-31T05:31:37.357Z,1014.96
2018-07-31T05:32:37.433Z,1014.97
2018-07-31T05:33:37.415Z,1014.99
2018-07-31T05:34:37.439Z,1014.99
2018-07-31T05:35:37.465Z,1014.97
2018-07-31T05:36:37.494Z,1015.00
2018-07-31T05:37:37.525Z,1015.02
2018-07-31T05:38:37.551Z,1015.01
2018-07-31T05:39:37.577Z,1015.00
2018-07-31T05:40:37.617Z,1015.03
2018-07-31T05:41:37.639Z,1015.06
2018-07-31T05:42:37.670Z,1015.03
2018-07-31T05:43:37.689Z,1015.07
2018-07-31T05:44:37.719Z,1015.09
2018-07-31T05:45:37.756Z,1015.07
2018-07-31T05:46:37.777Z,1015.08
2018-07-31T05:47:37.804Z,1015.04
2018-07-31T05:48:37.840Z,1015.08
2018-07-31T05:49:37.854Z,1015.03
2018-07-31T05:50:37.885Z,1015.09
2018-07-31T05:51:37.915Z,1015.08
2018-07-31T05:52:37.937Z,1015.08
2018-07-31T05:53:37.974Z,1015.09
2018-07-31T05:54:38.003Z,1015.07
2018-07-31T05:55:38.025Z,1015.09
2018-07-31T05:56:38.057Z,1015.11
2018-07-31T05:57:38.084Z,1015.12
2018-07-31T05:58:38.108Z,1015.11
2018-07-31T05:59:38.139Z,1015.14
2018-07-31T06:00:38.169Z,1015.15
2018-07-31T06:01:38.196Z,1015.13
2018-07-31T06:02:38.223Z,1015.13
2018-07-31T06:03:38.324Z,1015.12
2018-07-31T06:04:38.277Z,1015.12
2018-07-31T06:05:38.308Z,1015.14
2018-07-31T06:06:38.333Z,1015.15
2018-07-31T06:07:38.365Z,1015.16
2018-07-31T06:08:38.397Z,1015.21
2018-07-31T06:09:38.435Z,1015.20
2018-07-31T06:10:38.445Z,1015.19
2018-07-31T06:11:38.472Z,1015.24
2018-07-31T06:12:38.498Z,1015.23
2018-07-31T06:13:38.527Z,1015.23
2018-07-31T06:14:38.563Z,1015.23
2018-07-31T06:15:38.583Z,1015.21
2018-07-31T06:16:38.616Z,1015.23
2018-07-31T06:17:38.643Z,1015.22
2018-07-31T06:18:38.668Z,1015.24
2018-07-31T06:19:38.698Z,1015.22
2018-07-31T06:20:38.733Z,1015.20
2018-07-31T06:21:38.755Z,1015.23
2018-07-31T06:22:38.785Z,1015.24
2018-07-31T06:23:38.815Z,1015.23
2018-07-31T06:24:38.837Z,1015.28
2018-07-31T06:25:38.916Z,1015.27
2018-07-31T06:26:38.894Z,1015.34
2018-07-31T06:27:38.923Z,1015.34
2018-07-31T06:28:38.957Z,1015.31
2018-07-31T06:29:38.979Z,1015.33
2018-07-31T06:30:39.008Z,1015.37
2018-07-31T06:31:39.045Z,1015.43
2018-07-31T06:32:39.067Z,1015.36
2018-07-31T06:33:39.089Z,1015.42
2018-07-31T06:34:39.119Z,1015.37
2018-07-31T06:35:39.151Z,1015.45
2018-07-31T06:36:39.173Z,1015.40
2018-07-31T06:37:39.205Z,1015.43
2018-07-31T06:38:39.229Z,1015.42
2018-07-31T06:39:39.256Z,1015.38
2018-07-31T06:40:39.285Z,1015.43
2018-07-31T06:41:39.313Z,1015.43
2018-07-31T06:42:39.359Z,1015.41
2018-07-31T06:43:39.375Z,1015.37
2018-07-31T06:44:39.402Z,1015.40
2018-07-31T06:45:39.423Z,1015.43
2018-07-31T06:46:39.453Z,1015.49
2018-07-31T06:47:39.483Z,1015.46
2018-07-31T06:48:39.512Z,1015.49
2018-07-31T06:49:39.539Z,1015.53
2018-07-31T06:50:39.570Z,1015.54
2018-07-31T06:51:39.591Z,1015.53
2018-07-31T06:52:39.621Z,1015.51
2018-07-31T06:53:39.656Z,1015.53
2018-07-31T06:54:39.690Z,1015.50
2018-07-31T06:55:39.709Z,1015.47
2018-07-31T06:56:39.765Z,1015.50
2018-07-31T06:57:39.771Z,1015.50
2018-07-31T06:58:39.793Z,1015.49
2018-07-31T06:59:39.819Z,1015.52
2018-07-31T07:00:39.841Z,1015.50
2018-07-31T07:01:39.880Z,1015.49
2018-07-31T07:02:39.902Z,1015.43
2018-07-31T07:03:39.937Z,1015.48
2018-07-31T07:04:39.957Z,1015.50
2018-07-31T07:05:39.987Z,1015.50
2018-07-31T07:06:40.037Z,1015.55
2018-07-31T07:07:40.048Z,1015.57
2018-07-31T07:08:40.071Z,1015.57
2018-07-31T07:09:40.100Z,1015.59
2018-07-31T07:10:40.131Z,1015.63
2018-07-31T07:11:40.159Z,1015.67
2018-07-31T07:12:40.187Z,1015.63
2018-07-31T07:13:40.215Z,1015.72
2018-07-31T07:14:40.242Z,1015.72
2018-07-31T07:15:40.266Z,1015.69
2018-07-31T07:16:40.295Z,1015.75
2018-07-31T07:17:40.321Z,1015.72
2018-07-31T07:18:40.351Z,1015.75
2018-07-31T07:19:40.384Z,1015.76
2018-07-31T07:20:40.414Z,1015.77
2018-07-31T07:21:40.439Z,1015.73
2018-07-31T07:22:40.523Z,1015.69
2018-07-31T07:23:40.491Z,1015.71
2018-07-31T07:24:40.526Z,1015.71
2018-07-31T07:25:40.551Z,1015.70
2018-07-31T07:26:40.581Z,1015.73
2018-07-31T07:27:40.605Z,1015.76
2018-07-31T07:28:40.641Z,1015.74
2018-07-31T07:29:40.669Z,1015.74
2018-07-31T07:30:40.697Z,1015.75
2018-07-31T07:31:40.725Z,1015.71
2018-07-31T07:32:40.753Z,1015.72
2018-07-31T07:33:40.870Z,1015.71
2018-07-31T07:34:40.811Z,1015.74
2018-07-31T07:35:40.843Z,1015.75
2018-07-31T07:36:40.871Z,1015.79
2018-07-31T07:37:40.903Z,1015.74
2018-07-31T07:38:40.928Z,1015.68
2018-07-31T07:39:40.972Z,1015.70
2018-07-31T07:40:40.988Z,1015.70
2018-07-31T07:41:41.015Z,1015.73
2018-07-31T07:42:41.045Z,1015.74
2018-07-31T07:43:41.070Z,1015.74
2018-07-31T07:44:41.106Z,1015.74
2018-07-31T07:45:41.130Z,1015.76
2018-07-31T07:46:41.162Z,1015.79
2018-07-31T07:47:41.196Z,1015.82
2018-07-31T07:48:41.224Z,1015.82
2018-07-31T07:49:41.246Z,1015.82
2018-07-31T07:50:41.282Z,1015.84
2018-07-31T07:51:41.305Z,1015.84
2018-07-31T07:52:41.335Z,1015.82
2018-07-31T07:53:41.360Z,1015.82
2018-07-31T07:54:41.389Z,1015.83
2018-07-31T07:55:41.427Z,1015.80
2018-07-31T07:56:41.454Z,1015.78
2018-07-31T07:57:41.478Z,1015.74
2018-07-31T07:58:41.513Z,1015.73
2018-07-31T07:59:41.540Z,1015.79
2018-07-31T08:00:41.568Z,1015.72
2018-07-31T08:01:41.600Z,1015.70
2018-07-31T08:02:41.629Z,1015.70
2018-07-31T08:03:41.683Z,1015.73
2018-07-31T08:04:41.686Z,1015.67
2018-07-31T08:05:41.721Z,1015.69
2018-07-31T08:06:41.754Z,1015.71
2018-07-31T08:07:41.790Z,1015.63
2018-07-31T08:08:41.809Z,1015.62
2018-07-31T08:09:41.889Z,1015.66
2018-07-31T08:10:41.867Z,1015.66
2018-07-31T08:11:41.899Z,1015.62
2018-07-31T08:12:41.927Z,1015.61
2018-07-31T08:13:41.960Z,1015.61
2018-07-31T08:14:41.990Z,1015.59
2018-07-31T08:15:42.023Z,1015.59
2018-07-31T08:16:42.050Z,1015.57
2018-07-31T08:17:42.080Z,1015.64
2018-07-31T08:18:42.115Z,1015.59
2018-07-31T08:19:42.142Z,1015.58
2018-07-31T08:20:42.200Z,1015.59
2018-07-31T08:21:42.218Z,1015.57
2018-07-31T08:22:42.238Z,1015.57
2018-07-31T08:23:42.262Z,1015.57
2018-07-31T08:24:42.294Z,1015.57
2018-07-31T08:25:42.328Z,1015.59
2018-07-31T08:26:42.354Z,1015.59
2018-07-31T08:27:42.407Z,1015.62
2018-07-31T08:28:42.420Z,1015.60
2018-07-31T08:29:42.446Z,1015.59
2018-07-31T08:30:42.478Z,1015.61
2018-07-31T08:31:42.505Z,1015.60
2018-07-31T08:32:42.535Z,1015.61
2018-07-31T08:33:42.566Z,1015.57
2018-07-31T08:34:42.596Z,1015.59
2018-07-31T08:35:42.624Z,1015.59
2018-07-31T08:36:42.656Z,1015.58
2018-07-31T08:37:42.693Z,1015.62
2018-07-31T08:38:42.716Z,1015.65
2018-07-31T08:39:42.746Z,1015.62
2018-07-31T08:40:42.780Z,1015.58
2018-07-31T08:41:42.817Z,1015.62
2018-07-31T08:42:42.840Z,1015.63
2018-07-31T08:43:42.873Z,1015.65
2018-07-31T08:44:42.903Z,1015.64
2018-07-31T08:45:42.932Z,1015.64
2018-07-31T08:46:42.960Z,1015.61
2018-07-31T08:47:42.996Z,1015.63
2018-07-31T08:48:43.018Z,1015.61
2018-07-31T08:49:43.062Z,1015.63
2018-07-31T08:50:43.085Z,1015.67
2018-07-31T08:51:43.120Z,1015.68
2018-07-31T08:52:43.144Z,1015.64
2018-07-31T08:53:43.168Z,1015.71
2018-07-31T08:54:43.207Z,1015.72
2018-07-31T08:55:43.304Z,1015.75
2018-07-31T08:56:43.272Z,1015.73
2018-07-31T08:57:43.290Z,1015.74
2018-07-31T08:58:43.327Z,1015.76
2018-07-31T08:59:43.358Z,1015.76
2018-07-31T09:00:43.392Z,1015.72
2018-07-31T09:01:43.414Z,1015.70
2018-07-31T09:02:43.503Z,1015.72
2018-07-31T09:03:43.476Z,1015.76
2018-07-31T09:04:43.506Z,1015.71
2018-07-31T09:05:43.547Z,1015.74
2018-07-31T09:06:43.577Z,1015.72
2018-07-31T09:07:43.598Z,1015.70
2018-07-31T09:08:43.735Z,1015.72
2018-07-31T09:09:43.661Z,1015.73
2018-07-31T09:10:43.698Z,1015.72
2018-07-31T09:11:43.718Z,1015.74
2018-07-31T09:12:43.750Z,1015.74
2018-07-31T09:13:43.786Z,1015.73
2018-07-31T09:14:43.814Z,1015.75
2018-07-31T09:15:43.841Z,1015.72
2018-07-31T09:16:43.871Z,1015.70
2018-07-31T09:17:43.904Z,1015.73
2018-07-31T09:18:43.940Z,1015.75
2018-07-31T09:19:43.970Z,1015.74
2018-07-31T09:20:43.999Z,1015.75
2018-07-31T09:21:44.036Z,1015.75
2018-07-31T09:22:44.062Z,1015.74
2018-07-31T09:23:44.100Z,1015.72
2018-07-31T09:24:44.141Z,1015.72
2018-07-31T09:25:44.156Z,1015.74
2018-07-31T09:26:44.189Z,1015.73
2018-07-31T09:27:44.209Z,1015.73
2018-07-31T09:28:44.248Z,1015.74
2018-07-31T09:29:44.276Z,1015.77
2018-07-31T09:30:44.394Z,1015.79
2018-07-31T09:31:44.347Z,1015.81
2018-07-31T09:32:44.371Z,1015.81
2018-07-31T09:33:44.400Z,1015.76
2018-07-31T09:34:44.448Z,1015.75
2018-07-31T09:35:44.462Z,1015.72
2018-07-31T09:36:44.495Z,1015.72
2018-07-31T09:37:44.530Z,1015.72
2018-07-31T09:38:44.559Z,1015.70
2018-07-31T09:39:44.588Z,1015.71
2018-07-31T09:40:44.616Z,1015.70
2018-07-31T09:41:44.654Z,1015.75
2018-07-31T09:42:44.762Z,1015.78
2018-07-31T09:43:44.716Z,1015.77
2018-07-31T09:44:44.745Z,1015.81
2018-07-31T09:45:44.782Z,1015.79
2018-07-31T09:46:44.814Z,1015.80
2018-07-31T09:47:44.847Z,1015.81
2018-07-31T09:48:44.881Z,1015.80
2018-07-31T09:49:44.907Z,1015.81
2018-07-31T09:50:44.997Z,1015.79
2018-07-31T09:51:44.966Z,1015.80
2018-07-31T09:52:45.001Z,1015.79
2018-07-31T09:53:45.031Z,1015.79
2018-07-31T09:54:45.062Z,1015.83
2018-07-31T09:55:45.096Z,1015.83
2018-07-31T09:56:45.129Z,1015.82
2018-07-31T09:57:45.162Z,1015.87
2018-07-31T09:58:45.189Z,1015.83
2018-07-31T09:59:45.224Z,1015.86
2018-07-31T10:00:45.254Z,1015.88
2018-07-31T10:01:45.285Z,1015.85
2018-07-31T10:02:45.318Z,1015.86
2018-07-31T10:03:45.352Z,1015.87
2018-07-31T10:04:45.386Z,1015.86
2018-07-31T10:05:45.415Z,1015.88
2018-07-31T10:06:45.448Z,1015.88
2018-07-31T10:07:45.475Z,1015.87
2018-07-31T10:08:45.510Z,1015.85
2018-07-31T10:09:45.546Z,1015.86
2018-07-31T10:10:45.574Z,1015.88
2018-07-31T10:11:45.690Z,1015.85
2018-07-31T10:12:45.636Z,1015.85
2018-07-31T10:13:45.671Z,1015.86
2018-07-31T10:14:45.704Z,1015.87
2018-07-31T10:15:45.736Z,1015.88
2018-07-31T10:16:45.771Z,1015.89
2018-07-31T10:17:45.859Z,1015.87
2018-07-31T10:18:45.836Z,1015.89
2018-07-31T10:19:45.870Z,1015.86
2018-07-31T10:20:45.903Z,1015.86
2018-07-31T10:21:45.930Z,1015.83
2018-07-31T10:22:45.967Z,1015.83
2018-07-31T10:23:45.994Z,1015.85
2018-07-31T10:24:46.026Z,1015.83
2018-07-31T10:25:46.066Z,1015.86
2018-07-31T10:26:46.107Z,1015.85
2018-07-31T10:27:46.126Z,1015.90
2018-07-31T10:28:46.162Z,1015.91
2018-07-31T10:29:46.196Z,1015.92
2018-07-31T10:30:46.372Z,1015.90
2018-07-31T10:31:46.256Z,1015.87
2018-07-31T10:32:46.289Z,1015.93
2018-07-31T10:33:46.320Z,1015.88
2018-07-31T10:34:46.357Z,1015.85
2018-07-31T10:35:46.392Z,1015.86
2018-07-31T10:36:46.419Z,1015.87
2018-07-31T10:37:46.466Z,1015.87
2018-07-31T10:38:46.482Z,1015.87
2018-07-31T10:39:46.516Z,1015.84
2018-07-31T10:40:46.552Z,1015.84
2018-07-31T10:41:46.589Z,1015.82
2018-07-31T10:42:46.618Z,1015.82
2018-07-31T10:43:46.697Z,1015.80
2018-07-31T10:44:46.679Z,1015.83
2018-07-31T10:45:46.716Z,1015.85
2018-07-31T10:46:46.745Z,1015.84
2018-07-31T10:47:46.781Z,1015.84
2018-07-31T10:48:46.818Z,1015.84
2018-07-31T10:49:46.848Z,1015.84
2018-07-31T10:50:46.878Z,1015.85
2018-07-31T10:51:46.911Z,1015.85
2018-07-31T10:52:46.943Z,1015.87
2018-07-31T10:53:46.980Z,1015.87
2018-07-31T10:54:47.017Z,1015.86
2018-07-31T10:55:47.045Z,1015.88
2018-07-31T10:56:47.118Z,1015.86
2018-07-31T10:57:47.110Z,1015.85
2018-07-31T10:58:47.230Z,1015.87
2018-07-31T10:59:48.695Z,1015.85
2018-07-31T11:00:47.208Z,1015.84
2018-07-31T11:01:47.247Z,1015.87
2018-07-31T11:03:47.315Z,1015.83
2018-07-31T11:04:47.343Z,1015.84
2018-07-31T11:05:47.374Z,1015.80
2018-07-31T11:06:47.413Z,1015.82
2018-07-31T11:07:47.451Z,1015.80
2018-07-31T11:08:47.476Z,1015.83
2018-07-31T11:09:47.507Z,1015.77
2018-07-31T11:10:47.554Z,1015.76
2018-07-31T11:11:47.574Z,1015.74
2018-07-31T11:12:47.611Z,1015.71
2018-07-31T11:13:47.644Z,1015.74
2018-07-31T11:14:47.686Z,1015.69
2018-07-31T11:15:47.716Z,1015.69
2018-07-31T11:16:47.744Z,1015.71
2018-07-31T11:17:47.774Z,1015.70
2018-07-31T11:18:47.810Z,1015.72
2018-07-31T11:19:47.842Z,1015.70
2018-07-31T11:20:47.882Z,1015.78
2018-07-31T11:21:47.912Z,1015.72
2018-07-31T11:22:47.947Z,1015.74
2018-07-31T11:23:47.978Z,1015.75
2018-07-31T11:24:48.012Z,1015.75
2018-07-31T11:25:48.050Z,1015.76
2018-07-31T11:26:48.092Z,1015.72
2018-07-31T11:27:48.107Z,1015.75
2018-07-31T11:28:48.152Z,1015.73
2018-07-31T11:29:48.184Z,1015.72
2018-07-31T11:30:48.214Z,1015.75
2018-07-31T11:31:48.245Z,1015.77
2018-07-31T11:32:48.288Z,1015.77
2018-07-31T11:33:48.314Z,1015.72
2018-07-31T11:34:48.350Z,1015.71
2018-07-31T11:35:48.382Z,1015.73
2018-07-31T11:36:48.410Z,1015.74
2018-07-31T11:37:48.447Z,1015.76
2018-07-31T11:38:48.479Z,1015.80
2018-07-31T11:39:48.512Z,1015.77
2018-07-31T11:40:48.547Z,1015.77
2018-07-31T11:41:48.583Z,1015.79
2018-07-31T11:42:48.616Z,1015.78
2018-07-31T11:43:48.648Z,1015.79
2018-07-31T11:44:48.680Z,1015.80
2018-07-31T11:45:48.720Z,1015.82
2018-07-31T11:46:48.751Z,1015.77
2018-07-31T11:47:48.789Z,1015.83
2018-07-31T11:48:48.819Z,1015.82
2018-07-31T11:49:48.875Z,1015.86
2018-07-31T11:50:48.886Z,1015.78
2018-07-31T11:51:48.915Z,1015.75
2018-07-31T11:52:48.952Z,1015.72
2018-07-31T11:53:48.993Z,1015.67
2018-07-31T11:54:49.027Z,1015.71
2018-07-31T11:55:49.061Z,1015.66
2018-07-31T11:56:49.088Z,1015.72
2018-07-31T11:57:49.125Z,1015.68
2018-07-31T11:58:49.161Z,1015.70
2018-07-31T11:59:49.191Z,1015.74
2018-07-31T12:00:49.226Z,1015.69
2018-07-31T12:01:49.321Z,1015.69
2018-07-31T12:02:49.303Z,1015.72
2018-07-31T12:03:49.325Z,1015.73
2018-07-31T12:04:49.366Z,1015.75
2018-07-31T12:05:49.403Z,1015.73
2018-07-31T12:06:49.434Z,1015.77
2018-07-31T12:07:49.465Z,1015.73
2018-07-31T12:08:49.501Z,1015.72
2018-07-31T12:09:49.542Z,1015.79
2018-07-31T12:10:49.567Z,1015.98
2018-07-31T12:11:49.606Z,1015.87
2018-07-31T12:12:49.642Z,1015.87
2018-07-31T12:13:49.714Z,1015.87
2018-07-31T12:14:49.706Z,1015.85
2018-07-31T12:15:49.741Z,1015.88
2018-07-31T12:16:49.770Z,1015.90
2018-07-31T12:17:49.808Z,1015.88
2018-07-31T12:18:49.844Z,1015.82
2018-07-31T12:19:49.874Z,1015.88
2018-07-31T12:20:49.953Z,1015.89
2018-07-31T12:21:49.940Z,1015.94
2018-07-31T12:22:49.983Z,1015.97
2018-07-31T12:23:50.021Z,1015.95
2018-07-31T12:24:50.053Z,1016.01
2018-07-31T12:25:50.085Z,1016.02
2018-07-31T12:26:50.121Z,1016.04
2018-07-31T12:27:50.147Z,1015.97
2018-07-31T12:28:50.190Z,1016.00
2018-07-31T12:29:50.214Z,1015.95
2018-07-31T12:30:50.256Z,1016.00
2018-07-31T12:31:50.280Z,1015.98
2018-07-31T12:32:50.350Z,1015.99
2018-07-31T12:33:50.356Z,1015.95
2018-07-31T12:34:50.386Z,1016.02
2018-07-31T12:35:50.417Z,1016.03
2018-07-31T12:36:50.448Z,1016.02
2018-07-31T12:37:50.491Z,1016.07
2018-07-31T12:38:50.520Z,1016.08
2018-07-31T12:39:50.557Z,1016.06
2018-07-31T12:40:50.586Z,1016.04
2018-07-31T12:41:50.624Z,1016.03
2018-07-31T12:42:50.656Z,1016.09
2018-07-31T12:43:50.690Z,1016.13
2018-07-31T12:44:50.723Z,1016.17
2018-07-31T12:45:50.764Z,1016.16
2018-07-31T12:46:50.793Z,1016.07
2018-07-31T12:47:50.828Z,1016.19
2018-07-31T12:48:50.862Z,1016.15
2018-07-31T12:49:50.896Z,1016.35
2018-07-31T12:50:50.928Z,1016.29